sensor_id;sensor_type;location;lat;lon;timestamp;P1;durP1;ratioP1;P2;durP2;ratioP2
74959;SDS011;63518;49.572;1.106;2023-03-01T00:01:37;7.45;;;3.55;;
74959;SDS011;63518;49.572;1.106;2023-03-01T00:04:04;10.63;;;3.40;;
74959;SDS011;63518;49.572;1.106;2023-03-01T00:06:31;8.85;;;4.47;;
74959;SDS011;63518;49.572;1.106;2023-03-01T00:08:58;6.57;;;3.08;;
74959;SDS011;63518;49.572;1.106;2023-03-01T00:11:27;6.63;;;3.80;;
74959;SDS011;63518;49.572;1.106;2023-03-01T00:13:57;6.75;;;3.53;;
74959;SDS011;63518;49.572;1.106;2023-03-01T00:16:26;8.63;;;3.75;;
74959;SDS011;63518;49.572;1.106;2023-03-01T00:18:58;8.25;;;3.03;;
74959;SDS011;63518;49.572;1.106;2023-03-01T00:21:26;12.15;;;4.22;;
74959;SDS011;63518;49.572;1.106;2023-03-01T00:23:53;8.45;;;4.35;;
74959;SDS011;63518;49.572;1.106;2023-03-01T00:26:21;10.40;;;4.53;;
74959;SDS011;63518;49.572;1.106;2023-03-01T00:28:50;6.43;;;2.80;;
74959;SDS011;63518;49.572;1.106;2023-03-01T00:31:18;8.77;;;4.05;;
74959;SDS011;63518;49.572;1.106;2023-03-01T00:33:47;8.43;;;4.30;;
74959;SDS011;63518;49.572;1.106;2023-03-01T00:36:15;7.70;;;3.80;;
74959;SDS011;63518;49.572;1.106;2023-03-01T00:38:43;7.38;;;3.45;;
74959;SDS011;63518;49.572;1.106;2023-03-01T00:41:13;8.88;;;3.00;;
74959;SDS011;63518;49.572;1.106;2023-03-01T00:43:42;9.40;;;4.30;;
74959;SDS011;63518;49.572;1.106;2023-03-01T00:46:10;11.48;;;3.45;;
74959;SDS011;63518;49.572;1.106;2023-03-01T00:48:44;10.93;;;4.90;;
74959;SDS011;63518;49.572;1.106;2023-03-01T00:51:14;7.80;;;3.75;;
74959;SDS011;63518;49.572;1.106;2023-03-01T00:53:44;7.80;;;3.22;;
74959;SDS011;63518;49.572;1.106;2023-03-01T00:56:13;7.95;;;3.38;;
74959;SDS011;63518;49.572;1.106;2023-03-01T00:58:41;7.65;;;2.83;;
74959;SDS011;63518;49.572;1.106;2023-03-01T01:01:09;13.27;;;3.35;;
74959;SDS011;63518;49.572;1.106;2023-03-01T01:03:46;9.15;;;3.90;;
74959;SDS011;63518;49.572;1.106;2023-03-01T01:06:17;9.10;;;3.33;;
74959;SDS011;63518;49.572;1.106;2023-03-01T01:08:49;11.57;;;3.53;;
74959;SDS011;63518;49.572;1.106;2023-03-01T01:11:16;8.15;;;2.53;;
74959;SDS011;63518;49.572;1.106;2023-03-01T01:13:44;8.02;;;3.70;;
74959;SDS011;63518;49.572;1.106;2023-03-01T01:16:13;7.47;;;3.47;;
74959;SDS011;63518;49.572;1.106;2023-03-01T01:18:41;10.57;;;4.75;;
74959;SDS011;63518;49.572;1.106;2023-03-01T01:21:10;10.55;;;4.05;;
74959;SDS011;63518;49.572;1.106;2023-03-01T01:23:39;7.03;;;3.38;;
74959;SDS011;63518;49.572;1.106;2023-03-01T01:26:09;8.15;;;3.72;;
74959;SDS011;63518;49.572;1.106;2023-03-01T01:28:38;12.60;;;5.13;;
74959;SDS011;63518;49.572;1.106;2023-03-01T01:31:05;7.57;;;3.85;;
74959;SDS011;63518;49.572;1.106;2023-03-01T01:33:33;9.18;;;3.70;;
74959;SDS011;63518;49.572;1.106;2023-03-01T01:36:03;8.70;;;3.45;;
74959;SDS011;63518;49.572;1.106;2023-03-01T01:38:31;7.65;;;3.22;;
74959;SDS011;63518;49.572;1.106;2023-03-01T01:40:59;8.95;;;3.45;;
74959;SDS011;63518;49.572;1.106;2023-03-01T01:43:28;11.40;;;3.05;;
74959;SDS011;63518;49.572;1.106;2023-03-01T01:45:58;4.35;;;1.65;;
74959;SDS011;63518;49.572;1.106;2023-03-01T01:48:32;8.32;;;3.13;;
74959;SDS011;63518;49.572;1.106;2023-03-01T01:51:10;10.55;;;3.60;;
74959;SDS011;63518;49.572;1.106;2023-03-01T01:53:41;8.85;;;2.72;;
74959;SDS011;63518;49.572;1.106;2023-03-01T01:56:11;9.57;;;3.90;;
74959;SDS011;63518;49.572;1.106;2023-03-01T01:58:41;9.23;;;4.00;;
74959;SDS011;63518;49.572;1.106;2023-03-01T02:01:11;8.98;;;3.80;;
74959;SDS011;63518;49.572;1.106;2023-03-01T02:03:39;9.50;;;3.40;;
74959;SDS011;63518;49.572;1.106;2023-03-01T02:08:57;9.60;;;4.22;;
74959;SDS011;63518;49.572;1.106;2023-03-01T02:11:32;8.80;;;2.92;;
74959;SDS011;63518;49.572;1.106;2023-03-01T02:14:00;10.30;;;4.10;;
74959;SDS011;63518;49.572;1.106;2023-03-01T02:16:27;7.13;;;3.08;;
74959;SDS011;63518;49.572;1.106;2023-03-01T02:18:57;9.13;;;3.33;;
74959;SDS011;63518;49.572;1.106;2023-03-01T02:21:37;10.48;;;4.22;;
74959;SDS011;63518;49.572;1.106;2023-03-01T02:27:17;8.25;;;3.60;;
74959;SDS011;63518;49.572;1.106;2023-03-01T02:29:51;10.68;;;3.30;;
74959;SDS011;63518;49.572;1.106;2023-03-01T02:32:19;9.35;;;4.65;;
74959;SDS011;63518;49.572;1.106;2023-03-01T02:34:53;11.05;;;2.95;;
74959;SDS011;63518;49.572;1.106;2023-03-01T02:37:22;11.63;;;3.83;;
74959;SDS011;63518;49.572;1.106;2023-03-01T02:40:02;9.98;;;4.43;;
74959;SDS011;63518;49.572;1.106;2023-03-01T02:42:35;8.15;;;3.20;;
74959;SDS011;63518;49.572;1.106;2023-03-01T02:47:38;8.95;;;3.95;;
74959;SDS011;63518;49.572;1.106;2023-03-01T02:50:12;7.90;;;3.00;;
74959;SDS011;63518;49.572;1.106;2023-03-01T02:53:12;10.32;;;3.83;;
74959;SDS011;63518;49.572;1.106;2023-03-01T02:55:42;8.68;;;3.25;;
74959;SDS011;63518;49.572;1.106;2023-03-01T02:58:10;10.32;;;3.97;;
74959;SDS011;63518;49.572;1.106;2023-03-01T03:00:41;8.27;;;3.53;;
74959;SDS011;63518;49.572;1.106;2023-03-01T03:03:13;14.32;;;5.20;;
74959;SDS011;63518;49.572;1.106;2023-03-01T03:05:43;9.35;;;4.00;;
74959;SDS011;63518;49.572;1.106;2023-03-01T03:08:10;8.77;;;3.78;;
74959;SDS011;63518;49.572;1.106;2023-03-01T03:10:39;8.57;;;3.35;;
74959;SDS011;63518;49.572;1.106;2023-03-01T03:13:08;8.10;;;3.20;;
74959;SDS011;63518;49.572;1.106;2023-03-01T03:15:37;9.15;;;3.63;;
74959;SDS011;63518;49.572;1.106;2023-03-01T03:18:07;7.53;;;3.72;;
74959;SDS011;63518;49.572;1.106;2023-03-01T03:20:38;12.60;;;4.22;;
74959;SDS011;63518;49.572;1.106;2023-03-01T03:23:07;10.63;;;3.83;;
74959;SDS011;63518;49.572;1.106;2023-03-01T03:25:34;11.30;;;4.80;;
74959;SDS011;63518;49.572;1.106;2023-03-01T03:28:05;10.30;;;4.55;;
74959;SDS011;63518;49.572;1.106;2023-03-01T03:30:37;9.73;;;4.60;;
74959;SDS011;63518;49.572;1.106;2023-03-01T03:33:06;9.45;;;4.00;;
74959;SDS011;63518;49.572;1.106;2023-03-01T03:35:39;8.27;;;4.28;;
74959;SDS011;63518;49.572;1.106;2023-03-01T03:38:10;9.93;;;4.40;;
74959;SDS011;63518;49.572;1.106;2023-03-01T03:40:45;11.77;;;5.05;;
74959;SDS011;63518;49.572;1.106;2023-03-01T03:43:15;11.00;;;4.82;;
74959;SDS011;63518;49.572;1.106;2023-03-01T03:45:45;13.55;;;4.70;;
74959;SDS011;63518;49.572;1.106;2023-03-01T03:48:13;12.07;;;5.05;;
74959;SDS011;63518;49.572;1.106;2023-03-01T03:50:41;9.43;;;4.45;;
74959;SDS011;63518;49.572;1.106;2023-03-01T03:53:10;8.55;;;3.20;;
74959;SDS011;63518;49.572;1.106;2023-03-01T03:55:38;12.95;;;4.85;;
74959;SDS011;63518;49.572;1.106;2023-03-01T03:58:07;9.77;;;4.03;;
74959;SDS011;63518;49.572;1.106;2023-03-01T04:00:40;10.60;;;4.68;;
74959;SDS011;63518;49.572;1.106;2023-03-01T04:03:09;9.10;;;4.15;;
74959;SDS011;63518;49.572;1.106;2023-03-01T04:05:38;11.68;;;5.30;;
74959;SDS011;63518;49.572;1.106;2023-03-01T04:08:07;12.98;;;4.60;;
74959;SDS011;63518;49.572;1.106;2023-03-01T04:10:39;13.88;;;4.88;;
74959;SDS011;63518;49.572;1.106;2023-03-01T04:13:09;12.75;;;5.38;;
74959;SDS011;63518;49.572;1.106;2023-03-01T04:18:06;5.75;;;2.22;;
74959;SDS011;63518;49.572;1.106;2023-03-01T04:20:34;13.63;;;5.63;;
74959;SDS011;63518;49.572;1.106;2023-03-01T04:25:44;14.57;;;5.38;;
74959;SDS011;63518;49.572;1.106;2023-03-01T04:28:22;9.55;;;4.80;;
74959;SDS011;63518;49.572;1.106;2023-03-01T04:30:55;12.18;;;5.78;;
74959;SDS011;63518;49.572;1.106;2023-03-01T04:33:25;13.43;;;5.05;;
74959;SDS011;63518;49.572;1.106;2023-03-01T04:35:52;13.57;;;6.00;;
74959;SDS011;63518;49.572;1.106;2023-03-01T04:38:20;14.55;;;5.88;;
74959;SDS011;63518;49.572;1.106;2023-03-01T04:40:48;13.18;;;5.85;;
74959;SDS011;63518;49.572;1.106;2023-03-01T04:43:15;12.45;;;5.75;;
74959;SDS011;63518;49.572;1.106;2023-03-01T04:45:42;12.00;;;5.55;;
74959;SDS011;63518;49.572;1.106;2023-03-01T04:48:09;13.68;;;6.05;;
74959;SDS011;63518;49.572;1.106;2023-03-01T04:50:37;12.13;;;5.53;;
74959;SDS011;63518;49.572;1.106;2023-03-01T04:53:03;12.70;;;6.07;;
74959;SDS011;63518;49.572;1.106;2023-03-01T04:55:30;16.02;;;7.28;;
74959;SDS011;63518;49.572;1.106;2023-03-01T04:57:58;16.73;;;6.55;;
74959;SDS011;63518;49.572;1.106;2023-03-01T05:00:25;13.60;;;6.72;;
74959;SDS011;63518;49.572;1.106;2023-03-01T05:02:54;12.10;;;5.38;;
74959;SDS011;63518;49.572;1.106;2023-03-01T05:05:25;13.15;;;4.68;;
74959;SDS011;63518;49.572;1.106;2023-03-01T05:08:00;15.23;;;6.85;;
74959;SDS011;63518;49.572;1.106;2023-03-01T05:10:35;15.82;;;6.05;;
74959;SDS011;63518;49.572;1.106;2023-03-01T05:13:03;12.10;;;5.97;;
74959;SDS011;63518;49.572;1.106;2023-03-01T05:15:30;14.55;;;6.28;;
74959;SDS011;63518;49.572;1.106;2023-03-01T05:17:59;17.27;;;7.15;;
74959;SDS011;63518;49.572;1.106;2023-03-01T05:20:26;8.95;;;3.97;;
74959;SDS011;63518;49.572;1.106;2023-03-01T05:22:57;13.23;;;6.15;;
74959;SDS011;63518;49.572;1.106;2023-03-01T05:25:26;15.95;;;6.97;;
74959;SDS011;63518;49.572;1.106;2023-03-01T05:27:54;12.70;;;6.35;;
74959;SDS011;63518;49.572;1.106;2023-03-01T05:30:21;14.00;;;6.40;;
74959;SDS011;63518;49.572;1.106;2023-03-01T05:32:48;14.80;;;5.68;;
74959;SDS011;63518;49.572;1.106;2023-03-01T05:35:22;13.68;;;5.50;;
74959;SDS011;63518;49.572;1.106;2023-03-01T05:37:49;16.58;;;6.70;;
74959;SDS011;63518;49.572;1.106;2023-03-01T05:40:18;15.50;;;5.47;;
74959;SDS011;63518;49.572;1.106;2023-03-01T05:42:52;12.70;;;5.93;;
74959;SDS011;63518;49.572;1.106;2023-03-01T05:45:24;16.20;;;6.53;;
74959;SDS011;63518;49.572;1.106;2023-03-01T05:47:53;11.32;;;4.78;;
74959;SDS011;63518;49.572;1.106;2023-03-01T05:50:22;13.43;;;6.65;;
74959;SDS011;63518;49.572;1.106;2023-03-01T05:53:00;13.32;;;6.53;;
74959;SDS011;63518;49.572;1.106;2023-03-01T05:55:31;14.38;;;6.28;;
74959;SDS011;63518;49.572;1.106;2023-03-01T05:58:00;13.63;;;5.60;;
74959;SDS011;63518;49.572;1.106;2023-03-01T06:00:29;14.15;;;6.07;;
74959;SDS011;63518;49.572;1.106;2023-03-01T06:02:57;10.63;;;4.82;;
74959;SDS011;63518;49.572;1.106;2023-03-01T06:05:25;13.48;;;5.78;;
74959;SDS011;63518;49.572;1.106;2023-03-01T06:07:53;11.75;;;5.35;;
74959;SDS011;63518;49.572;1.106;2023-03-01T06:10:22;11.68;;;4.65;;
74959;SDS011;63518;49.572;1.106;2023-03-01T06:12:49;9.70;;;3.58;;
74959;SDS011;63518;49.572;1.106;2023-03-01T06:15:16;14.10;;;4.88;;
74959;SDS011;63518;49.572;1.106;2023-03-01T06:17:44;9.45;;;4.80;;
74959;SDS011;63518;49.572;1.106;2023-03-01T06:20:13;11.32;;;5.30;;
74959;SDS011;63518;49.572;1.106;2023-03-01T06:22:43;13.18;;;5.55;;
74959;SDS011;63518;49.572;1.106;2023-03-01T06:25:11;14.85;;;5.30;;
74959;SDS011;63518;49.572;1.106;2023-03-01T06:27:40;10.15;;;4.43;;
74959;SDS011;63518;49.572;1.106;2023-03-01T06:30:09;9.13;;;4.05;;
74959;SDS011;63518;49.572;1.106;2023-03-01T06:32:37;15.57;;;6.72;;
74959;SDS011;63518;49.572;1.106;2023-03-01T06:35:08;9.85;;;4.70;;
74959;SDS011;63518;49.572;1.106;2023-03-01T06:37:37;11.27;;;5.20;;
74959;SDS011;63518;49.572;1.106;2023-03-01T06:40:05;9.15;;;4.70;;
74959;SDS011;63518;49.572;1.106;2023-03-01T06:42:35;9.40;;;4.22;;
74959;SDS011;63518;49.572;1.106;2023-03-01T06:45:03;14.70;;;7.10;;
74959;SDS011;63518;49.572;1.106;2023-03-01T06:47:32;11.25;;;3.95;;
74959;SDS011;63518;49.572;1.106;2023-03-01T06:50:00;10.18;;;4.80;;
74959;SDS011;63518;49.572;1.106;2023-03-01T06:52:28;11.32;;;4.70;;
74959;SDS011;63518;49.572;1.106;2023-03-01T06:54:56;10.73;;;5.18;;
74959;SDS011;63518;49.572;1.106;2023-03-01T06:57:23;12.75;;;4.90;;
74959;SDS011;63518;49.572;1.106;2023-03-01T06:59:51;11.60;;;5.20;;
74959;SDS011;63518;49.572;1.106;2023-03-01T07:02:17;13.57;;;6.40;;
74959;SDS011;63518;49.572;1.106;2023-03-01T07:04:46;12.30;;;6.18;;
74959;SDS011;63518;49.572;1.106;2023-03-01T07:07:15;13.23;;;5.65;;
74959;SDS011;63518;49.572;1.106;2023-03-01T07:09:42;11.27;;;4.13;;
74959;SDS011;63518;49.572;1.106;2023-03-01T07:12:09;15.55;;;7.35;;
74959;SDS011;63518;49.572;1.106;2023-03-01T07:14:37;11.20;;;5.03;;
74959;SDS011;63518;49.572;1.106;2023-03-01T07:17:04;12.90;;;6.20;;
74959;SDS011;63518;49.572;1.106;2023-03-01T07:19:32;14.60;;;6.32;;
74959;SDS011;63518;49.572;1.106;2023-03-01T07:21:59;14.43;;;5.15;;
74959;SDS011;63518;49.572;1.106;2023-03-01T07:24:26;13.48;;;4.07;;
74959;SDS011;63518;49.572;1.106;2023-03-01T07:26:53;12.02;;;5.30;;
74959;SDS011;63518;49.572;1.106;2023-03-01T07:29:20;11.23;;;5.40;;
74959;SDS011;63518;49.572;1.106;2023-03-01T07:31:47;12.75;;;5.30;;
74959;SDS011;63518;49.572;1.106;2023-03-01T07:34:14;11.95;;;4.97;;
74959;SDS011;63518;49.572;1.106;2023-03-01T07:36:41;12.88;;;5.55;;
74959;SDS011;63518;49.572;1.106;2023-03-01T07:39:10;12.25;;;5.07;;
74959;SDS011;63518;49.572;1.106;2023-03-01T07:41:37;9.95;;;3.63;;
74959;SDS011;63518;49.572;1.106;2023-03-01T07:44:05;12.48;;;4.88;;
74959;SDS011;63518;49.572;1.106;2023-03-01T07:46:32;15.05;;;6.43;;
74959;SDS011;63518;49.572;1.106;2023-03-01T07:48:59;11.75;;;4.60;;
74959;SDS011;63518;49.572;1.106;2023-03-01T07:51:26;8.40;;;3.50;;
74959;SDS011;63518;49.572;1.106;2023-03-01T07:53:53;12.23;;;5.63;;
74959;SDS011;63518;49.572;1.106;2023-03-01T07:56:20;10.90;;;4.93;;
74959;SDS011;63518;49.572;1.106;2023-03-01T07:58:48;11.68;;;5.30;;
74959;SDS011;63518;49.572;1.106;2023-03-01T08:01:18;12.38;;;5.38;;
74959;SDS011;63518;49.572;1.106;2023-03-01T08:03:46;16.40;;;7.40;;
74959;SDS011;63518;49.572;1.106;2023-03-01T08:06:15;14.23;;;6.05;;
74959;SDS011;63518;49.572;1.106;2023-03-01T08:08:43;6.38;;;3.20;;
74959;SDS011;63518;49.572;1.106;2023-03-01T08:11:11;11.70;;;5.68;;
74959;SDS011;63518;49.572;1.106;2023-03-01T08:13:39;15.98;;;7.68;;
74959;SDS011;63518;49.572;1.106;2023-03-01T08:16:09;9.77;;;5.22;;
74959;SDS011;63518;49.572;1.106;2023-03-01T08:18:38;12.15;;;4.70;;
74959;SDS011;63518;49.572;1.106;2023-03-01T08:21:07;15.43;;;6.00;;
74959;SDS011;63518;49.572;1.106;2023-03-01T08:23:38;11.77;;;5.00;;
74959;SDS011;63518;49.572;1.106;2023-03-01T08:28:34;10.75;;;5.05;;
74959;SDS011;63518;49.572;1.106;2023-03-01T08:31:02;9.80;;;4.20;;
74959;SDS011;63518;49.572;1.106;2023-03-01T08:33:29;7.43;;;3.72;;
74959;SDS011;63518;49.572;1.106;2023-03-01T08:36:03;10.57;;;5.13;;
74959;SDS011;63518;49.572;1.106;2023-03-01T08:38:31;13.55;;;6.57;;
74959;SDS011;63518;49.572;1.106;2023-03-01T08:41:01;10.10;;;4.65;;
74959;SDS011;63518;49.572;1.106;2023-03-01T08:43:29;10.18;;;4.95;;
74959;SDS011;63518;49.572;1.106;2023-03-01T08:45:56;16.85;;;7.38;;
74959;SDS011;63518;49.572;1.106;2023-03-01T08:48:24;8.13;;;3.17;;
74959;SDS011;63518;49.572;1.106;2023-03-01T08:50:51;13.18;;;6.55;;
74959;SDS011;63518;49.572;1.106;2023-03-01T08:53:18;7.78;;;2.35;;
74959;SDS011;63518;49.572;1.106;2023-03-01T08:55:45;15.55;;;6.57;;
74959;SDS011;63518;49.572;1.106;2023-03-01T08:58:12;13.95;;;7.22;;
74959;SDS011;63518;49.572;1.106;2023-03-01T09:00:40;12.13;;;5.82;;
74959;SDS011;63518;49.572;1.106;2023-03-01T09:03:07;11.18;;;5.28;;
74959;SDS011;63518;49.572;1.106;2023-03-01T09:05:35;12.85;;;6.32;;
74959;SDS011;63518;49.572;1.106;2023-03-01T09:08:03;14.65;;;7.47;;
74959;SDS011;63518;49.572;1.106;2023-03-01T09:10:31;16.20;;;7.15;;
74959;SDS011;63518;49.572;1.106;2023-03-01T09:12:59;13.15;;;6.47;;
74959;SDS011;63518;49.572;1.106;2023-03-01T09:15:26;13.73;;;6.97;;
74959;SDS011;63518;49.572;1.106;2023-03-01T09:17:53;13.30;;;5.28;;
74959;SDS011;63518;49.572;1.106;2023-03-01T09:20:20;11.77;;;6.07;;
74959;SDS011;63518;49.572;1.106;2023-03-01T09:22:47;11.98;;;6.22;;
74959;SDS011;63518;49.572;1.106;2023-03-01T09:25:15;12.32;;;6.75;;
74959;SDS011;63518;49.572;1.106;2023-03-01T09:27:42;10.85;;;5.93;;
74959;SDS011;63518;49.572;1.106;2023-03-01T09:30:09;13.77;;;5.55;;
74959;SDS011;63518;49.572;1.106;2023-03-01T09:32:36;11.82;;;5.05;;
74959;SDS011;63518;49.572;1.106;2023-03-01T09:35:04;11.40;;;6.20;;
74959;SDS011;63518;49.572;1.106;2023-03-01T09:37:35;13.45;;;7.57;;
74959;SDS011;63518;49.572;1.106;2023-03-01T09:40:04;12.98;;;5.30;;
74959;SDS011;63518;49.572;1.106;2023-03-01T09:42:33;13.07;;;6.53;;
74959;SDS011;63518;49.572;1.106;2023-03-01T09:55:12;13.45;;;6.13;;
74959;SDS011;63518;49.572;1.106;2023-03-01T10:00:16;12.82;;;6.47;;
74959;SDS011;63518;49.572;1.106;2023-03-01T10:02:59;13.55;;;7.25;;
74959;SDS011;63518;49.572;1.106;2023-03-01T10:05:56;14.73;;;7.22;;
74959;SDS011;63518;49.572;1.106;2023-03-01T10:08:40;10.00;;;4.85;;
74959;SDS011;63518;49.572;1.106;2023-03-01T10:11:24;10.73;;;5.40;;
74959;SDS011;63518;49.572;1.106;2023-03-01T10:17:00;12.70;;;6.30;;
74959;SDS011;63518;49.572;1.106;2023-03-01T10:19:37;10.90;;;5.93;;
74959;SDS011;63518;49.572;1.106;2023-03-01T10:22:11;11.45;;;6.38;;
74959;SDS011;63518;49.572;1.106;2023-03-01T10:24:42;13.35;;;7.05;;
74959;SDS011;63518;49.572;1.106;2023-03-01T10:27:14;10.55;;;5.43;;
74959;SDS011;63518;49.572;1.106;2023-03-01T10:32:43;8.73;;;4.75;;
74959;SDS011;63518;49.572;1.106;2023-03-01T10:35:18;13.70;;;6.28;;
74959;SDS011;63518;49.572;1.106;2023-03-01T10:40:50;11.13;;;6.18;;
74959;SDS011;63518;49.572;1.106;2023-03-01T10:43:20;9.55;;;4.13;;
74959;SDS011;63518;49.572;1.106;2023-03-01T10:45:48;14.15;;;6.22;;
74959;SDS011;63518;49.572;1.106;2023-03-01T10:48:17;11.30;;;5.47;;
74959;SDS011;63518;49.572;1.106;2023-03-01T10:50:47;9.27;;;4.43;;
74959;SDS011;63518;49.572;1.106;2023-03-01T10:53:26;10.00;;;5.28;;
74959;SDS011;63518;49.572;1.106;2023-03-01T10:56:06;11.13;;;5.15;;
74959;SDS011;63518;49.572;1.106;2023-03-01T10:58:35;9.60;;;4.35;;
74959;SDS011;63518;49.572;1.106;2023-03-01T11:01:26;11.68;;;6.15;;
74959;SDS011;63518;49.572;1.106;2023-03-01T11:04:12;11.68;;;5.97;;
74959;SDS011;63518;49.572;1.106;2023-03-01T11:06:41;9.40;;;5.97;;
74959;SDS011;63518;49.572;1.106;2023-03-01T11:09:15;11.32;;;5.18;;
74959;SDS011;63518;49.572;1.106;2023-03-01T11:11:46;12.05;;;5.28;;
74959;SDS011;63518;49.572;1.106;2023-03-01T11:14:29;7.85;;;4.07;;
74959;SDS011;63518;49.572;1.106;2023-03-01T11:19:37;10.27;;;4.30;;
74959;SDS011;63518;49.572;1.106;2023-03-01T11:22:12;12.07;;;5.43;;
74959;SDS011;63518;49.572;1.106;2023-03-01T11:24:43;10.73;;;4.57;;
74959;SDS011;63518;49.572;1.106;2023-03-01T11:27:35;9.10;;;5.30;;
74959;SDS011;63518;49.572;1.106;2023-03-01T11:30:12;14.10;;;6.47;;
74959;SDS011;63518;49.572;1.106;2023-03-01T11:32:45;12.15;;;5.97;;
74959;SDS011;63518;49.572;1.106;2023-03-01T11:35:24;12.20;;;5.82;;
74959;SDS011;63518;49.572;1.106;2023-03-01T11:40:41;9.63;;;4.68;;
74959;SDS011;63518;49.572;1.106;2023-03-01T11:43:15;8.98;;;5.07;;
74959;SDS011;63518;49.572;1.106;2023-03-01T11:45:58;13.40;;;5.40;;
74959;SDS011;63518;49.572;1.106;2023-03-01T11:51:34;10.70;;;6.05;;
74959;SDS011;63518;49.572;1.106;2023-03-01T11:54:06;12.00;;;6.30;;
74959;SDS011;63518;49.572;1.106;2023-03-01T11:57:10;11.52;;;5.63;;
74959;SDS011;63518;49.572;1.106;2023-03-01T12:08:17;11.80;;;5.60;;
74959;SDS011;63518;49.572;1.106;2023-03-01T16:10:49;8.65;;;3.58;;
74959;SDS011;63518;49.572;1.106;2023-03-01T16:13:17;9.70;;;3.60;;
74959;SDS011;63518;49.572;1.106;2023-03-01T16:15:45;8.50;;;3.30;;
74959;SDS011;63518;49.572;1.106;2023-03-01T16:18:12;9.70;;;3.92;;
74959;SDS011;63518;49.572;1.106;2023-03-01T16:20:39;9.93;;;3.80;;
74959;SDS011;63518;49.572;1.106;2023-03-01T16:23:07;7.32;;;3.20;;
74959;SDS011;63518;49.572;1.106;2023-03-01T16:25:35;8.35;;;3.58;;
74959;SDS011;63518;49.572;1.106;2023-03-01T16:28:02;6.60;;;2.67;;
74959;SDS011;63518;49.572;1.106;2023-03-01T16:30:36;6.57;;;2.78;;
74959;SDS011;63518;49.572;1.106;2023-03-01T16:33:06;7.22;;;2.53;;
74959;SDS011;63518;49.572;1.106;2023-03-01T16:35:54;7.45;;;2.80;;
74959;SDS011;63518;49.572;1.106;2023-03-01T16:38:22;7.38;;;2.97;;
74959;SDS011;63518;49.572;1.106;2023-03-01T16:40:49;7.22;;;3.08;;
74959;SDS011;63518;49.572;1.106;2023-03-01T16:43:17;7.82;;;3.35;;
74959;SDS011;63518;49.572;1.106;2023-03-01T16:45:44;8.38;;;3.08;;
74959;SDS011;63518;49.572;1.106;2023-03-01T16:48:13;7.68;;;2.63;;
74959;SDS011;63518;49.572;1.106;2023-03-01T16:50:40;7.78;;;2.72;;
74959;SDS011;63518;49.572;1.106;2023-03-01T16:53:06;7.10;;;2.67;;
74959;SDS011;63518;49.572;1.106;2023-03-01T16:55:34;8.27;;;3.33;;
74959;SDS011;63518;49.572;1.106;2023-03-01T16:58:01;7.15;;;2.95;;
74959;SDS011;63518;49.572;1.106;2023-03-01T17:00:28;7.10;;;2.67;;
74959;SDS011;63518;49.572;1.106;2023-03-01T17:02:55;8.43;;;3.55;;
74959;SDS011;63518;49.572;1.106;2023-03-01T17:05:23;6.50;;;3.03;;
74959;SDS011;63518;49.572;1.106;2023-03-01T17:07:51;7.32;;;2.80;;
74959;SDS011;63518;49.572;1.106;2023-03-01T17:10:21;9.70;;;2.97;;
74959;SDS011;63518;49.572;1.106;2023-03-01T17:12:48;6.18;;;2.42;;
74959;SDS011;63518;49.572;1.106;2023-03-01T17:15:18;6.78;;;2.88;;
74959;SDS011;63518;49.572;1.106;2023-03-01T17:17:45;7.05;;;2.90;;
74959;SDS011;63518;49.572;1.106;2023-03-01T17:20:17;8.85;;;3.30;;
74959;SDS011;63518;49.572;1.106;2023-03-01T17:22:45;7.28;;;3.45;;
74959;SDS011;63518;49.572;1.106;2023-03-01T17:25:12;10.95;;;4.28;;
74959;SDS011;63518;49.572;1.106;2023-03-01T17:27:39;7.25;;;3.05;;
74959;SDS011;63518;49.572;1.106;2023-03-01T17:30:07;7.03;;;2.70;;
74959;SDS011;63518;49.572;1.106;2023-03-01T17:32:37;7.95;;;2.58;;
74959;SDS011;63518;49.572;1.106;2023-03-01T17:35:05;7.30;;;2.97;;
74959;SDS011;63518;49.572;1.106;2023-03-01T17:37:33;7.85;;;2.75;;
74959;SDS011;63518;49.572;1.106;2023-03-01T17:40:02;8.70;;;3.67;;
74959;SDS011;63518;49.572;1.106;2023-03-01T17:42:30;7.68;;;2.67;;
74959;SDS011;63518;49.572;1.106;2023-03-01T17:44:57;7.30;;;3.13;;
74959;SDS011;63518;49.572;1.106;2023-03-01T17:47:24;8.48;;;2.70;;
74959;SDS011;63518;49.572;1.106;2023-03-01T17:49:51;9.00;;;4.43;;
74959;SDS011;63518;49.572;1.106;2023-03-01T17:52:18;22.65;;;10.18;;
74959;SDS011;63518;49.572;1.106;2023-03-01T17:54:49;16.00;;;6.50;;
74959;SDS011;63518;49.572;1.106;2023-03-01T17:57:16;11.20;;;4.55;;
74959;SDS011;63518;49.572;1.106;2023-03-01T17:59:44;10.23;;;3.85;;
74959;SDS011;63518;49.572;1.106;2023-03-01T18:02:11;10.75;;;4.30;;
74959;SDS011;63518;49.572;1.106;2023-03-01T18:04:39;9.07;;;2.83;;
74959;SDS011;63518;49.572;1.106;2023-03-01T18:07:06;8.73;;;3.15;;
74959;SDS011;63518;49.572;1.106;2023-03-01T18:09:33;10.52;;;5.13;;
74959;SDS011;63518;49.572;1.106;2023-03-01T18:12:00;11.52;;;5.18;;
74959;SDS011;63518;49.572;1.106;2023-03-01T18:14:28;8.50;;;3.38;;
74959;SDS011;63518;49.572;1.106;2023-03-01T18:16:59;8.55;;;3.08;;
74959;SDS011;63518;49.572;1.106;2023-03-01T18:19:32;10.75;;;3.78;;
74959;SDS011;63518;49.572;1.106;2023-03-01T18:21:59;10.27;;;3.88;;
74959;SDS011;63518;49.572;1.106;2023-03-01T18:24:26;7.78;;;3.17;;
74959;SDS011;63518;49.572;1.106;2023-03-01T21:14:37;12.80;;;4.68;;
74959;SDS011;63518;49.572;1.106;2023-03-01T21:17:13;7.15;;;2.70;;
74959;SDS011;63518;49.572;1.106;2023-03-01T21:19:42;9.55;;;4.50;;
74959;SDS011;63518;49.572;1.106;2023-03-01T21:22:14;8.82;;;3.97;;
74959;SDS011;63518;49.572;1.106;2023-03-01T21:24:41;11.60;;;5.22;;
74959;SDS011;63518;49.572;1.106;2023-03-01T21:27:10;12.63;;;4.38;;
74959;SDS011;63518;49.572;1.106;2023-03-01T21:29:40;12.13;;;5.05;;
74959;SDS011;63518;49.572;1.106;2023-03-01T21:32:09;12.05;;;4.72;;
74959;SDS011;63518;49.572;1.106;2023-03-01T21:34:37;10.98;;;5.38;;
74959;SDS011;63518;49.572;1.106;2023-03-01T21:37:05;13.48;;;4.97;;
74959;SDS011;63518;49.572;1.106;2023-03-01T21:39:34;18.23;;;5.30;;
74959;SDS011;63518;49.572;1.106;2023-03-01T21:42:01;12.77;;;5.65;;
74959;SDS011;63518;49.572;1.106;2023-03-01T21:44:30;10.13;;;4.88;;
74959;SDS011;63518;49.572;1.106;2023-03-01T21:46:58;14.02;;;5.30;;
74959;SDS011;63518;49.572;1.106;2023-03-01T21:49:25;9.38;;;4.60;;
74959;SDS011;63518;49.572;1.106;2023-03-01T21:51:52;16.88;;;5.30;;
74959;SDS011;63518;49.572;1.106;2023-03-01T21:54:20;15.23;;;6.13;;
74959;SDS011;63518;49.572;1.106;2023-03-01T21:56:48;17.80;;;7.00;;
74959;SDS011;63518;49.572;1.106;2023-03-01T21:59:17;21.42;;;6.88;;
74959;SDS011;63518;49.572;1.106;2023-03-01T22:04:14;10.18;;;5.20;;
74959;SDS011;63518;49.572;1.106;2023-03-01T22:06:43;12.23;;;5.43;;
74959;SDS011;63518;49.572;1.106;2023-03-01T22:09:13;13.27;;;5.45;;
74959;SDS011;63518;49.572;1.106;2023-03-01T22:11:48;12.98;;;5.90;;
74959;SDS011;63518;49.572;1.106;2023-03-01T22:14:19;16.25;;;7.13;;
74959;SDS011;63518;49.572;1.106;2023-03-01T22:16:47;16.77;;;7.05;;
74959;SDS011;63518;49.572;1.106;2023-03-01T22:19:17;17.70;;;5.53;;
74959;SDS011;63518;49.572;1.106;2023-03-01T22:21:45;18.50;;;6.25;;
74959;SDS011;63518;49.572;1.106;2023-03-01T22:24:17;13.73;;;5.93;;
74959;SDS011;63518;49.572;1.106;2023-03-01T22:26:46;18.60;;;8.13;;
74959;SDS011;63518;49.572;1.106;2023-03-01T22:29:16;13.02;;;5.97;;
74959;SDS011;63518;49.572;1.106;2023-03-01T22:31:51;18.05;;;7.18;;
74959;SDS011;63518;49.572;1.106;2023-03-01T22:34:20;15.85;;;7.32;;
74959;SDS011;63518;49.572;1.106;2023-03-01T22:36:48;12.65;;;6.18;;
74959;SDS011;63518;49.572;1.106;2023-03-01T22:39:16;13.43;;;6.55;;
74959;SDS011;63518;49.572;1.106;2023-03-01T22:41:45;14.18;;;6.50;;